Time;durP1;ratioP1;P1;durP2;ratioP2;P2;SDS_P1;SDS_P2;PMS_P1;PMS_P2;Temp;Humidity;BMP_temperature;BMP_pressure;BME280_temperature;BME280_humidity;BME280_pressure;Samples;Min_cycle;Max_cycle;Signal;HPM_P1;HPM_P2
2023/12/17 00:01:30;;;;;;;3.70;1.85;;;;;;;6.52;94.58;150309.19;13068133;22;20042;-84
2023/12/17 00:06:34;;;;;;;3.40;2.03;;;;;;;6.48;94.26;150300.19;13068535;22;20424;-83
2023/12/17 00:11:40;;;;;;;5.15;2.00;;;;;;;6.20;96.05;150228.13;13068906;22;20011;-84
2023/12/17 00:16:42;;;;;;;2.33;1.20;;;;;;;6.34;95.39;150264.16;13070586;22;20026;-84
2023/12/17 00:21:44;;;;;;;3.40;1.73;;;;;;;6.21;95.88;150230.69;13044512;22;20007;-84
2023/12/17 00:26:45;;;;;;;3.72;1.70;;;;;;;6.29;94.21;150251.28;13073756;22;20011;-84
2023/12/17 00:31:47;;;;;;;2.97;1.65;;;;;;;6.14;95.40;150212.66;13043690;22;20349;-82
2023/12/17 00:36:49;;;;;;;2.30;1.40;;;;;;;6.22;94.51;150233.25;13106483;22;20010;-83
2023/12/17 00:41:50;;;;;;;4.85;1.90;;;;;;;6.13;94.69;150211.38;13025303;22;20022;-84
2023/12/17 00:46:52;;;;;;;5.30;1.52;;;;;;;5.97;96.20;150171.47;13072399;22;20074;-84
2023/12/17 00:51:54;;;;;;;3.53;1.92;;;;;;;5.83;96.77;150136.69;13045972;22;20046;-83
2023/12/17 00:56:56;;;;;;;5.93;1.80;;;;;;;5.85;96.82;150140.59;13072334;22;20060;-83
2023/12/17 01:01:57;;;;;;;3.17;1.80;;;;;;;5.69;98.10;150100.69;13068591;22;20502;-83
2023/12/17 01:06:59;;;;;;;8.55;1.65;;;;;;;5.89;96.98;150149.56;13077949;22;20027;-82
2023/12/17 01:12:03;;;;;;;1.70;1.40;;;;;;;5.85;97.16;150139.31;13108342;22;20014;-84
2023/12/17 01:17:07;;;;;;;6.35;1.60;;;;;;;5.74;96.96;150113.53;13109309;22;19999;-83
2023/12/17 01:22:08;;;;;;;2.22;1.20;;;;;;;5.79;97.15;150126.41;13074252;22;20019;-83
2023/12/17 01:27:10;;;;;;;1.63;1.10;;;;;;;5.69;97.01;150099.41;13077302;22;20079;-84
2023/12/17 01:32:12;;;;;;;2.78;1.40;;;;;;;5.70;96.26;150101.97;13085272;22;20016;-84
2023/12/17 01:37:13;;;;;;;2.65;1.45;;;;;;;5.71;96.42;150104.53;13054429;22;20465;-84
2023/12/17 01:42:15;;;;;;;3.30;1.55;;;;;;;5.57;95.96;150069.81;13081983;22;20094;-84
2023/12/17 01:47:17;;;;;;;3.78;1.30;;;;;;;5.41;97.09;150029.97;13062067;22;20019;-84
2023/12/17 01:52:19;;;;;;;3.28;1.20;;;;;;;5.40;97.15;150026.06;13090296;22;20022;-84
2023/12/17 01:57:21;;;;;;;2.25;1.33;;;;;;;5.50;97.33;150053.13;13109339;22;20002;-79
2023/12/17 02:02:23;;;;;;;3.70;1.98;;;;;;;5.23;97.90;149983.69;13113152;22;20080;-83
2023/12/17 02:07:24;;;;;;;1.80;1.10;;;;;;;5.17;98.72;149969.50;13088279;22;20015;-84
2023/12/17 02:12:27;;;;;;;5.43;1.30;;;;;;;5.19;99.00;149973.41;13082113;22;20022;-84
2023/12/17 02:17:31;;;;;;;3.50;1.30;;;;;;;5.27;98.36;149993.97;13052295;22;20042;-84
2023/12/17 02:22:33;;;;;;;2.53;1.13;;;;;;;5.20;98.66;149977.22;13051152;22;20018;-84
2023/12/17 02:27:35;;;;;;;2.70;1.05;;;;;;;5.43;97.16;150033.81;13052262;22;20046;-83
2023/12/17 02:32:37;;;;;;;2.65;1.08;;;;;;;5.40;97.04;150026.06;13078488;22;20016;-84
2023/12/17 02:37:39;;;;;;;3.10;0.80;;;;;;;5.21;98.18;149978.50;13077571;22;20019;-83
2023/12/17 02:42:42;;;;;;;1.75;1.08;;;;;;;5.07;99.92;149945.09;13077030;22;20015;-84
2023/12/17 02:47:43;;;;;;;1.52;0.80;;;;;;;5.17;99.04;149969.50;13075175;22;20026;-83
2023/12/17 02:52:45;;;;;;;4.90;1.08;;;;;;;4.91;100.00;149903.94;13080661;22;20012;-84
2023/12/17 02:57:47;;;;;;;2.40;1.02;;;;;;;5.03;99.83;149934.78;13076304;22;20452;-84
2023/12/17 03:02:50;;;;;;;2.45;1.00;;;;;;;4.98;100.00;149921.94;13049223;22;20019;-83
2023/12/17 03:07:52;;;;;;;2.58;1.17;;;;;;;4.81;100.00;149878.25;13048134;22;20019;-84
2023/12/17 03:12:54;;;;;;;3.95;1.35;;;;;;;4.87;100.00;149893.69;13022579;22;20353;-84
2023/12/17 03:17:56;;;;;;;1.50;1.05;;;;;;;4.68;100.00;149844.81;13049391;22;20041;-84
2023/12/17 03:22:58;;;;;;;1.83;0.70;;;;;;;4.73;100.00;149857.66;13049994;22;20015;-84
2023/12/17 03:28:00;;;;;;;3.90;1.33;;;;;;;4.85;100.00;149887.25;13048709;22;20034;-84
2023/12/17 03:33:01;;;;;;;1.25;0.77;;;;;;;4.74;100.00;149860.28;13075655;22;20011;-84
2023/12/17 03:38:03;;;;;;;2.08;1.10;;;;;;;4.54;100.00;149810.13;13076267;22;20023;-85
2023/12/17 03:43:06;;;;;;;3.22;1.00;;;;;;;4.69;100.00;149848.72;13021642;22;20069;-85
2023/12/17 03:48:08;;;;;;;3.88;1.10;;;;;;;4.44;100.00;149785.72;13047023;22;20026;-84
2023/12/17 03:53:10;;;;;;;1.95;0.90;;;;;;;4.36;100.00;149765.16;13073600;22;20448;-83
2023/12/17 03:58:12;;;;;;;2.20;1.10;;;;;;;4.27;100.00;149742.03;13073244;22;20015;-84
2023/12/17 04:03:14;;;;;;;1.20;0.90;;;;;;;4.35;100.00;149762.59;13074742;22;20019;-85
2023/12/17 04:08:16;;;;;;;2.72;1.05;;;;;;;4.41;100.00;149776.72;13072845;22;20076;-84
2023/12/17 04:13:18;;;;;;;5.75;1.83;;;;;;;4.54;100.00;149811.41;13073131;22;20011;-83
2023/12/17 04:18:20;;;;;;;1.92;0.90;;;;;;;4.36;100.00;149763.88;13074584;22;20023;-83
2023/12/17 04:23:22;;;;;;;4.80;1.48;;;;;;;4.63;100.00;149831.97;13054834;22;20011;-84
2023/12/17 04:28:24;;;;;;;2.80;1.25;;;;;;;4.64;100.00;149834.53;13078805;22;20027;-84
2023/12/17 04:33:26;;;;;;;2.63;1.00;;;;;;;4.33;100.00;149757.44;13075861;22;20445;-82
2023/12/17 04:38:27;;;;;;;1.67;0.85;;;;;;;4.23;100.00;149731.75;13073234;22;20022;-84
2023/12/17 04:43:29;;;;;;;2.78;0.63;;;;;;;4.18;100.00;149720.19;13074489;22;20015;-84
2023/12/17 04:48:31;;;;;;;1.20;0.85;;;;;;;4.18;100.00;149720.19;13077869;22;20105;-83
2023/12/17 04:53:33;;;;;;;1.52;0.82;;;;;;;4.19;100.00;149722.75;13049614;22;20037;-83
2023/12/17 04:58:35;;;;;;;1.27;0.80;;;;;;;4.26;100.00;149739.47;13046143;22;20065;-84
2023/12/17 05:03:38;;;;;;;1.33;0.80;;;;;;;4.22;100.00;149730.47;13049609;22;20019;-83
2023/12/17 05:08:40;;;;;;;1.40;0.90;;;;;;;4.13;100.00;149707.34;13077454;22;20102;-85
2023/12/17 05:13:42;;;;;;;1.65;1.15;;;;;;;4.07;100.00;149691.91;13079409;22;20022;-84
2023/12/17 05:18:44;;;;;;;1.77;1.08;;;;;;;4.20;100.00;149724.03;13057449;22;20016;-83
2023/12/17 05:23:45;;;;;;;1.85;0.60;;;;;;;4.23;100.00;149731.75;13050863;22;20037;-83
2023/12/17 05:28:47;;;;;;;3.72;1.10;;;;;;;4.04;100.00;149685.50;13076837;22;20026;-82
2023/12/17 05:33:50;;;;;;;0.65;0.65;;;;;;;3.83;100.00;149631.56;13101851;22;20015;-83
2023/12/17 05:38:51;;;;;;;1.20;0.70;;;;;;;3.61;100.00;149576.34;13069010;22;20026;-82
2023/12/17 05:43:53;;;;;;;2.03;0.80;;;;;;;3.60;100.00;149573.78;13051477;22;20014;-82
2023/12/17 05:48:55;;;;;;;2.70;1.25;;;;;;;3.48;100.00;149544.25;13076769;22;20019;-82
2023/12/17 05:53:57;;;;;;;1.90;1.00;;;;;;;3.28;100.00;149492.91;13075495;22;20449;-83
2023/12/17 05:58:58;;;;;;;4.20;1.10;;;;;;;3.36;100.00;149513.41;13078439;22;20445;-85
2023/12/17 06:04:01;;;;;;;1.38;0.95;;;;;;;3.01;100.00;149424.84;13076755;22;20019;-84
2023/12/17 06:09:03;;;;;;;2.15;1.15;;;;;;;3.07;100.00;149439.00;13048788;22;20152;-84
2023/12/17 06:14:05;;;;;;;2.00;1.02;;;;;;;2.67;100.00;149340.16;13045817;22;20561;-82
2023/12/17 06:19:07;;;;;;;1.60;0.90;;;;;;;3.09;100.00;149445.38;13020720;22;20019;-84
2023/12/17 06:24:09;;;;;;;3.75;1.08;;;;;;;2.83;100.00;149378.66;13075475;22;20015;-83
2023/12/17 06:29:13;;;;;;;5.55;1.33;;;;;;;2.78;100.00;149368.38;13107727;22;19999;-83
2023/12/17 06:34:15;;;;;;;3.75;1.33;;;;;;;2.83;100.00;149379.94;13114097;22;20051;-82
2023/12/17 06:39:17;;;;;;;1.10;1.00;;;;;;;2.55;100.00;149308.09;13081258;22;20040;-83
2023/12/17 06:44:19;;;;;;;1.17;1.00;;;;;;;2.48;100.00;149291.44;13087067;22;20019;-82
2023/12/17 06:49:20;;;;;;;1.52;0.90;;;;;;;2.17;100.00;149213.16;13047691;22;20023;-82
2023/12/17 06:54:22;;;;;;;2.17;1.10;;;;;;;2.31;100.00;149249.09;13070729;22;20015;-83
2023/12/17 06:59:24;;;;;;;1.27;1.00;;;;;;;2.15;100.00;149209.31;13046696;22;20075;-83
2023/12/17 07:04:26;;;;;;;2.45;1.48;;;;;;;2.37;100.00;149263.19;13073558;22;20034;-82
2023/12/17 07:09:27;;;;;;;1.30;1.20;;;;;;;2.15;100.00;149208.03;13081284;22;20107;-82
2023/12/17 07:14:29;;;;;;;1.42;1.20;;;;;;;2.19;100.00;149218.31;13047116;22;20043;-83
2023/12/17 07:19:31;;;;;;;3.35;1.50;;;;;;;2.12;100.00;149201.59;13048448;22;20027;-82
2023/12/17 07:24:33;;;;;;;2.60;1.40;;;;;;;1.86;100.00;149134.94;13080877;22;20016;-81
2023/12/17 07:29:35;;;;;;;3.00;1.92;;;;;;;2.07;100.00;149187.50;13027347;22;20043;-81
2023/12/17 07:34:37;;;;;;;2.50;1.77;;;;;;;2.23;100.00;149229.84;13079089;22;20086;-82
2023/12/17 07:39:39;;;;;;;3.22;1.40;;;;;;;2.07;100.00;149187.50;13051149;22;20106;-82
2023/12/17 07:44:41;;;;;;;2.80;1.85;;;;;;;2.28;100.00;149242.66;13101851;22;20064;-82
2023/12/17 07:49:43;;;;;;;2.33;1.20;;;;;;;1.91;100.00;149149.06;13107280;22;20012;-81
2023/12/17 07:54:44;;;;;;;2.67;1.73;;;;;;;2.13;100.00;149204.22;13070978;22;20036;-81
2023/12/17 07:59:47;;;;;;;3.35;2.67;;;;;;;2.45;100.00;149285.00;13070541;22;20026;-83
2023/12/17 08:04:49;;;;;;;2.30;1.50;;;;;;;2.35;100.00;149259.38;13103872;22;20019;-81
2023/12/17 08:09:51;;;;;;;3.60;2.30;;;;;;;2.14;100.00;149205.50;13049937;22;20035;-82
2023/12/17 08:14:53;;;;;;;4.25;2.88;;;;;;;2.13;100.00;149202.94;13075096;22;20007;-82
2023/12/17 08:19:55;;;;;;;5.32;4.25;;;;;;;2.20;100.00;149220.84;13072224;22;20050;-81
2023/12/17 08:24:57;;;;;;;8.48;5.47;;;;;;;2.25;100.00;149233.69;13073434;22;20015;-81
2023/12/17 08:29:59;;;;;;;4.55;3.88;;;;;;;2.68;100.00;149341.44;13038558;22;20019;-82
2023/12/17 08:35:02;;;;;;;5.78;4.85;;;;;;;2.54;100.00;149306.81;13068634;22;20050;-81
2023/12/17 08:40:04;;;;;;;3.65;3.15;;;;;;;2.70;100.00;149347.88;13041494;22;20069;-82
2023/12/17 08:45:06;;;;;;;3.97;2.92;;;;;;;2.81;100.00;149373.53;13068828;22;20015;-81
2023/12/17 08:50:08;;;;;;;3.83;3.47;;;;;;;2.81;100.00;149374.81;13068804;22;20019;-82
2023/12/17 08:55:10;;;;;;;5.65;4.20;;;;;;;2.83;100.00;149379.94;13065799;22;20011;-81
2023/12/17 09:00:13;;;;;;;5.43;4.50;;;;;;;2.98;100.00;149418.44;13065971;22;20046;-82
2023/12/17 09:05:15;;;;;;;6.65;4.82;;;;;;;3.16;100.00;149463.38;13069113;22;20019;-81
2023/12/17 09:10:19;;;;;;;5.00;3.67;;;;;;;3.24;100.00;149482.63;13081510;22;20399;-82
2023/12/17 09:15:21;;;;;;;5.05;4.40;;;;;;;3.25;100.00;149485.19;13075254;22;20016;-82
2023/12/17 09:20:23;;;;;;;6.85;4.53;;;;;;;3.58;100.00;149567.34;13087614;22;20025;-82
2023/12/17 09:25:25;;;;;;;4.90;4.28;;;;;;;3.87;100.00;149640.56;13017504;22;20015;-82
2023/12/17 09:30:27;;;;;;;9.55;3.88;;;;;;;3.82;100.00;149627.72;13042454;22;20027;-82
2023/12/17 09:35:28;;;;;;;4.05;3.60;;;;;;;4.07;100.00;149691.91;13042193;22;20019;-81
2023/12/17 09:40:31;;;;;;;4.53;2.58;;;;;;;4.45;100.00;149788.28;13069376;22;20098;-81
2023/12/17 09:45:33;;;;;;;4.13;2.40;;;;;;;4.83;100.00;149883.41;13044213;22;20510;-82
2023/12/17 09:50:35;;;;;;;2.58;1.95;;;;;;;5.40;100.00;150026.06;13079640;22;20019;-84
2023/12/17 09:55:37;;;;;;;2.85;1.77;;;;;;;5.71;99.18;150104.53;13074824;22;20015;-83
2023/12/17 10:00:39;;;;;;;6.15;2.00;;;;;;;5.85;98.16;150140.59;13076598;22;20019;-81
2023/12/17 10:05:41;;;;;;;3.67;2.45;;;;;;;5.88;98.15;150148.28;13076425;22;20015;-82
2023/12/17 10:10:42;;;;;;;4.50;2.00;;;;;;;5.97;96.26;150170.19;13077195;22;20019;-82
2023/12/17 10:15:49;;;;;;;2.70;1.90;;;;;;;5.90;98.08;150153.44;13072422;22;20046;-80
2023/12/17 10:20:51;;;;;;;6.85;2.28;;;;;;;6.01;97.65;150181.75;13077336;22;20101;-81
2023/12/17 10:26:03;;;;;;;4.85;1.90;;;;;;;6.20;95.92;150228.13;13076865;22;20038;-81
2023/12/17 10:31:08;;;;;;;3.67;2.55;;;;;;;6.26;96.03;150243.56;13075117;22;20118;-81
2023/12/17 10:36:10;;;;;;;6.10;2.88;;;;;;;6.51;94.15;150307.91;13070350;22;20095;-81
2023/12/17 10:41:13;;;;;;;9.23;3.88;;;;;;;6.94;90.49;150416.00;13078005;22;20049;-83
2023/12/17 10:46:17;;;;;;;5.43;1.50;;;;;;;6.74;91.65;150364.53;13092086;22;20026;-82
2023/12/17 10:51:20;;;;;;;3.35;1.90;;;;;;;6.82;91.60;150386.44;13092107;22;20015;-82
2023/12/17 10:56:22;;;;;;;5.63;3.03;;;;;;;7.09;90.09;150453.38;13075018;22;20019;-82
2023/12/17 11:01:26;;;;;;;7.22;5.20;;;;;;;7.26;89.00;150497.19;13098341;22;20007;-82
2023/12/17 11:06:27;;;;;;;4.03;2.13;;;;;;;7.73;86.95;150614.38;13076348;22;20043;-81
2023/12/17 11:11:32;;;;;;;14.40;8.32;;;;;;;9.58;76.42;151083.72;13044938;22;20019;-80
2023/12/17 11:16:39;;;;;;;20.48;14.05;;;;;;;10.07;71.85;151206.31;13070905;22;20011;-83
2023/12/17 11:21:41;;;;;;;5.93;3.28;;;;;;;10.33;71.44;151272.19;13076200;22;20019;-82
2023/12/17 11:26:46;;;;;;;6.80;3.63;;;;;;;11.89;65.12;151667.47;13046007;22;20042;-83
2023/12/17 11:31:48;;;;;;;2.53;1.70;;;;;;;11.51;65.99;151571.84;13046645;22;20015;-82
2023/12/17 11:36:51;;;;;;;3.05;1.60;;;;;;;10.82;69.31;151397.44;13049437;22;20023;-83
2023/12/17 11:41:53;;;;;;;3.15;1.50;;;;;;;11.59;64.49;151592.47;13074789;22;20072;-83
2023/12/17 11:46:55;;;;;;;3.13;1.50;;;;;;;10.66;68.67;151354.81;13077477;22;20094;-84
2023/12/17 11:52:09;;;;;;;4.95;4.47;;;;;;;10.05;71.37;151202.44;13046368;22;20023;-82
2023/12/17 11:57:22;;;;;;;12.38;10.05;;;;;;;10.51;70.20;151318.66;13078586;22;20022;-82
2023/12/17 12:02:33;;;;;;;4.43;2.40;;;;;;;10.15;72.59;151225.69;13075508;22;20011;-83
2023/12/17 12:07:35;;;;;;;5.47;4.78;;;;;;;10.69;69.96;151362.56;13044079;22;20038;-82
2023/12/17 12:12:36;;;;;;;2.35;1.55;;;;;;;10.19;72.11;151237.28;13072194;22;20442;-83
2023/12/17 12:17:41;;;;;;;3.13;2.25;;;;;;;10.32;72.20;151270.91;13060211;22;20019;-82
2023/12/17 12:22:45;;;;;;;6.18;3.67;;;;;;;10.17;72.71;151232.09;13048810;22;20046;-82
2023/12/17 12:27:51;;;;;;;4.55;2.63;;;;;;;9.77;74.31;151131.44;13078789;22;20015;-79
2023/12/17 12:32:52;;;;;;;2.53;1.25;;;;;;;9.53;76.33;151069.53;13079330;22;20019;-80
2023/12/17 12:37:56;;;;;;;10.73;7.53;;;;;;;9.39;77.73;151034.72;13089343;22;20042;-81
2023/12/17 12:43:03;;;;;;;4.53;2.63;;;;;;;9.37;77.82;151029.53;13094880;22;20015;-78
2023/12/17 12:48:15;;;;;;;5.83;4.80;;;;;;;9.08;79.01;150957.31;13087945;22;20022;-81
2023/12/17 12:53:19;;;;;;;2.15;1.20;;;;;;;9.25;77.92;150999.88;13043919;22;20016;-79
2023/12/17 12:58:27;;;;;;;1.75;1.27;;;;;;;9.27;78.59;151005.03;13071563;22;20016;-80
2023/12/17 13:03:29;;;;;;;2.28;1.35;;;;;;;9.08;79.60;150956.03;13043462;22;20082;-80
2023/12/17 13:08:31;;;;;;;2.75;1.50;;;;;;;9.12;78.80;150965.03;13070030;22;20019;-79
2023/12/17 13:13:33;;;;;;;1.60;1.17;;;;;;;9.25;78.27;150999.88;13068889;22;20015;-79
2023/12/17 13:18:35;;;;;;;3.10;1.65;;;;;;;9.09;79.75;150958.59;13070260;22;20022;-79
2023/12/17 13:23:36;;;;;;;2.80;2.00;;;;;;;8.83;80.94;150894.09;13073890;22;20023;-79
2023/12/17 13:28:38;;;;;;;4.18;2.45;;;;;;;8.72;81.87;150864.44;13075323;22;20333;-80
2023/12/17 13:33:40;;;;;;;4.55;2.97;;;;;;;8.58;83.07;150829.63;13073841;22;20015;-79
2023/12/17 13:38:42;;;;;;;4.75;2.95;;;;;;;8.50;83.31;150810.31;13075434;22;20357;-80
2023/12/17 13:43:44;;;;;;;2.90;2.28;;;;;;;8.33;83.09;150767.72;13062622;22;20326;-81
2023/12/17 13:48:46;;;;;;;5.20;2.42;;;;;;;8.09;84.27;150707.13;13083801;22;20019;-79
2023/12/17 13:53:48;;;;;;;4.05;2.30;;;;;;;8.21;83.20;150735.50;13086398;22;20023;-81
2023/12/17 13:58:50;;;;;;;3.50;2.58;;;;;;;7.82;85.77;150637.56;13092535;22;20031;-79
2023/12/17 14:03:52;;;;;;;3.80;2.38;;;;;;;7.51;88.59;150558.97;13073242;22;20007;-81
2023/12/17 14:08:55;;;;;;;3.22;2.50;;;;;;;7.51;89.40;150558.97;13110271;22;20015;-81
2023/12/17 14:13:58;;;;;;;4.20;2.83;;;;;;;7.48;89.96;150551.22;13090763;22;20029;-81
2023/12/17 14:19:00;;;;;;;5.30;2.63;;;;;;;7.44;89.27;150542.25;13089331;22;20051;-79
2023/12/17 14:24:02;;;;;;;4.07;2.63;;;;;;;7.14;91.50;150466.25;13076435;22;20094;-80
2023/12/17 14:29:06;;;;;;;8.18;2.33;;;;;;;6.99;92.19;150428.88;13099323;22;20019;-80
2023/12/17 14:34:08;;;;;;;4.03;2.38;;;;;;;7.14;91.90;150464.97;13085649;22;20071;-80
2023/12/17 14:39:10;;;;;;;3.80;2.80;;;;;;;7.13;92.58;150462.34;13056072;22;20068;-80
2023/12/17 14:44:13;;;;;;;3.63;2.40;;;;;;;6.93;92.32;150412.16;13077791;22;20019;-81
2023/12/17 14:49:15;;;;;;;3.85;2.55;;;;;;;6.70;93.58;150354.25;13047906;22;20022;-81
2023/12/17 14:54:18;;;;;;;5.15;3.47;;;;;;;6.50;94.96;150305.31;13074540;22;20012;-81
2023/12/17 14:59:20;;;;;;;9.77;6.75;;;;;;;6.32;96.38;150258.97;13073082;22;20019;-82
2023/12/17 15:04:24;;;;;;;7.28;6.03;;;;;;;6.38;97.12;150273.16;13076223;22;20022;-82
2023/12/17 15:09:28;;;;;;;9.18;8.35;;;;;;;6.27;96.81;150247.41;13078863;22;20074;-80
2023/12/17 15:14:30;;;;;;;5.13;3.20;;;;;;;6.17;98.41;150220.41;13065525;22;20070;-80
2023/12/17 15:19:32;;;;;;;10.27;5.80;;;;;;;5.83;99.57;150136.69;13068665;22;20019;-80
2023/12/17 15:24:34;;;;;;;6.82;6.07;;;;;;;5.92;99.59;150157.34;13078934;22;20011;-80
2023/12/17 15:29:37;;;;;;;6.30;4.43;;;;;;;5.66;100.00;150092.94;13073055;22;20516;-81
2023/12/17 15:34:39;;;;;;;64.15;30.98;;;;;;;5.55;100.00;150064.69;13052425;22;20355;-80
2023/12/17 15:39:41;;;;;;;15.95;12.15;;;;;;;5.38;100.00;150022.22;13073055;22;20129;-80
2023/12/17 15:44:43;;;;;;;10.75;9.07;;;;;;;5.31;100.00;150005.53;13070010;22;20019;-81
2023/12/17 15:49:45;;;;;;;13.50;10.93;;;;;;;5.13;100.00;149957.94;13043337;22;20356;-81
2023/12/17 15:54:47;;;;;;;12.75;9.82;;;;;;;5.01;100.00;149929.69;13074939;22;20015;-81
2023/12/17 15:59:48;;;;;;;7.78;7.05;;;;;;;5.01;100.00;149929.69;13072549;22;20041;-80
2023/12/17 16:04:50;;;;;;;24.08;18.70;;;;;;;4.82;100.00;149880.78;13083314;22;20353;-80
2023/12/17 16:09:52;;;;;;;16.90;10.07;;;;;;;4.78;100.00;149871.84;13044682;22;20019;-81
2023/12/17 16:14:53;;;;;;;14.98;10.25;;;;;;;4.89;100.00;149897.53;13045857;22;20023;-80
2023/12/17 16:19:55;;;;;;;12.80;9.23;;;;;;;4.61;100.00;149826.84;13048095;22;20041;-81
2023/12/17 16:24:57;;;;;;;14.82;8.82;;;;;;;4.38;100.00;149770.28;13021909;22;20015;-81
2023/12/17 16:29:59;;;;;;;11.77;8.15;;;;;;;4.52;100.00;149806.28;13075381;22;20015;-80
2023/12/17 16:35:03;;;;;;;8.32;7.43;;;;;;;4.23;100.00;149731.75;13096644;22;20349;-80
2023/12/17 16:40:06;;;;;;;13.90;6.20;;;;;;;4.58;100.00;149819.13;13061974;22;20037;-80
2023/12/17 16:45:10;;;;;;;7.38;5.40;;;;;;;4.19;100.00;149722.75;13073199;22;20015;-82
2023/12/17 16:50:12;;;;;;;7.45;6.20;;;;;;;3.99;100.00;149671.41;13070677;22;20030;-80
2023/12/17 16:55:14;;;;;;;10.30;7.57;;;;;;;3.84;100.00;149634.13;13073602;22;20125;-81
2023/12/17 17:00:16;;;;;;;18.73;11.68;;;;;;;3.76;100.00;149613.56;13082235;22;20019;-81
2023/12/17 17:05:18;;;;;;;9.88;7.03;;;;;;;3.56;100.00;149562.22;13077151;22;20349;-80
2023/12/17 17:10:20;;;;;;;9.63;7.47;;;;;;;3.81;100.00;149626.44;13071744;22;20023;-81
2023/12/17 17:15:22;;;;;;;11.73;9.52;;;;;;;3.85;100.00;149636.72;13075950;22;20394;-81
2023/12/17 17:20:24;;;;;;;11.25;8.48;;;;;;;3.62;100.00;149578.91;13050918;22;20023;-82
2023/12/17 17:25:26;;;;;;;17.30;10.45;;;;;;;3.71;100.00;149600.72;13076276;22;20018;-80
2023/12/17 17:30:27;;;;;;;9.85;7.57;;;;;;;3.66;100.00;149589.19;13071423;22;20019;-81
2023/12/17 17:35:29;;;;;;;11.30;7.85;;;;;;;3.56;100.00;149563.50;13070201;22;20022;-81
2023/12/17 17:40:31;;;;;;;9.60;7.55;;;;;;;3.39;100.00;149519.84;13056714;22;20026;-82
2023/12/17 17:45:33;;;;;;;10.48;8.18;;;;;;;3.11;100.00;149449.25;13077564;22;20027;-81
2023/12/17 17:50:35;;;;;;;10.43;8.35;;;;;;;3.21;100.00;149474.91;13046584;22;20084;-82
2023/12/17 17:55:36;;;;;;;9.20;8.07;;;;;;;3.12;100.00;149451.81;13047094;22;20021;-81
2023/12/17 18:00:39;;;;;;;13.88;10.43;;;;;;;3.03;100.00;149430.00;13079487;22;20026;-80
2023/12/17 18:05:42;;;;;;;12.73;9.50;;;;;;;3.42;100.00;149527.56;13085275;22;20003;-81
2023/12/17 18:10:43;;;;;;;11.40;8.85;;;;;;;3.11;100.00;149449.25;13084016;22;20015;-82
2023/12/17 18:15:45;;;;;;;8.35;7.45;;;;;;;2.92;100.00;149401.75;13076830;22;20375;-81
2023/12/17 18:20:49;;;;;;;10.15;8.35;;;;;;;2.89;100.00;149395.34;13092567;22;20140;-81
2023/12/17 18:25:51;;;;;;;12.40;8.82;;;;;;;2.89;100.00;149395.34;13089235;22;20042;-81
2023/12/17 18:30:52;;;;;;;11.57;7.82;;;;;;;3.05;100.00;149435.09;13047463;22;20071;-81
2023/12/17 18:35:54;;;;;;;10.63;7.68;;;;;;;2.92;100.00;149403.06;13049160;22;20026;-81
2023/12/17 18:40:56;;;;;;;10.43;8.57;;;;;;;2.71;100.00;149350.44;13080973;22;20321;-80
2023/12/17 18:45:58;;;;;;;9.65;7.90;;;;;;;2.66;100.00;149336.34;13084118;22;20011;-83
2023/12/17 18:51:00;;;;;;;10.52;7.38;;;;;;;2.77;100.00;149365.81;13081866;22;20019;-82
2023/12/17 18:56:02;;;;;;;11.52;9.05;;;;;;;2.85;100.00;149383.81;13080034;22;20008;-83
2023/12/17 19:01:04;;;;;;;11.00;8.10;;;;;;;2.66;100.00;149337.63;13058060;22;20019;-81
2023/12/17 19:06:06;;;;;;;13.57;9.38;;;;;;;2.83;100.00;149378.66;13058426;22;20453;-83
2023/12/17 19:11:08;;;;;;;12.93;10.20;;;;;;;2.77;100.00;149364.53;13080183;22;20023;-81
2023/12/17 19:16:10;;;;;;;10.63;9.57;;;;;;;2.84;100.00;149382.53;13079627;22;20112;-82
2023/12/17 19:21:12;;;;;;;14.50;10.23;;;;;;;2.75;100.00;149359.44;13073976;22;20019;-82
2023/12/17 19:26:14;;;;;;;15.00;9.90;;;;;;;2.72;100.00;149351.72;13076841;22;20011;-82
2023/12/17 19:31:16;;;;;;;11.25;9.40;;;;;;;2.67;100.00;149340.16;13024564;22;20023;-83
2023/12/17 19:36:18;;;;;;;12.07;9.35;;;;;;;2.74;100.00;149358.09;13075357;22;20045;-83
2023/12/17 19:41:20;;;;;;;13.35;8.85;;;;;;;2.50;100.00;149297.81;13051897;22;20023;-82
2023/12/17 19:46:21;;;;;;;10.88;9.18;;;;;;;2.31;100.00;149247.81;13087673;22;20027;-83
2023/12/17 19:51:26;;;;;;;10.88;9.48;;;;;;;2.63;100.00;149329.91;13080933;22;20015;-82
2023/12/17 19:56:28;;;;;;;12.00;10.02;;;;;;;2.50;100.00;149296.53;13052947;22;20015;-83
2023/12/17 20:01:30;;;;;;;11.27;8.27;;;;;;;2.72;100.00;149353.00;13077333;22;20302;-82
2023/12/17 20:06:31;;;;;;;10.45;9.02;;;;;;;2.59;100.00;149318.34;13050901;22;20022;-83
2023/12/17 20:11:33;;;;;;;11.63;8.55;;;;;;;2.52;100.00;149301.66;13076580;22;20353;-83
2023/12/17 20:16:35;;;;;;;11.00;9.45;;;;;;;2.42;100.00;149276.00;13076635;22;20015;-82
2023/12/17 20:21:37;;;;;;;8.20;7.40;;;;;;;2.26;100.00;149237.56;13079578;22;20101;-83
2023/12/17 20:26:40;;;;;;;13.68;9.38;;;;;;;2.44;100.00;149282.44;13081813;22;20015;-83
2023/12/17 20:31:41;;;;;;;9.15;7.15;;;;;;;2.64;100.00;149332.47;13052119;22;20019;-85
2023/12/17 20:36:47;;;;;;;8.82;7.80;;;;;;;2.39;100.00;149269.63;13090782;22;20015;-85
2023/12/17 20:41:49;;;;;;;12.10;7.30;;;;;;;2.37;100.00;149264.47;13057040;22;20030;-84
2023/12/17 20:46:51;;;;;;;9.32;7.35;;;;;;;2.55;100.00;149308.09;13079449;22;20069;-83
2023/12/17 20:51:53;;;;;;;8.95;8.05;;;;;;;2.26;100.00;149236.28;13079024;22;20019;-84
2023/12/17 20:56:56;;;;;;;12.90;8.52;;;;;;;2.29;100.00;149243.94;13079857;22;20015;-84
2023/12/17 21:01:57;;;;;;;8.93;7.75;;;;;;;2.34;100.00;149256.75;13079286;22;20019;-85
2023/12/17 21:06:59;;;;;;;9.13;6.97;;;;;;;2.36;100.00;149261.91;13079653;22;20015;-83
2023/12/17 21:12:01;;;;;;;11.50;7.57;;;;;;;2.48;100.00;149291.44;13079928;22;20015;-83
2023/12/17 21:17:05;;;;;;;8.73;6.60;;;;;;;2.31;100.00;149249.09;13030284;22;20023;-84
2023/12/17 21:22:06;;;;;;;14.02;7.57;;;;;;;2.20;100.00;149222.13;13053723;22;20023;-83
2023/12/17 21:27:25;;;;;;;8.05;7.20;;;;;;;2.49;100.00;149295.28;13089370;22;20004;-82
2023/12/17 21:32:27;;;;;;;8.02;7.05;;;;;;;2.50;100.00;149297.81;13093526;22;20094;-82
2023/12/17 21:37:29;;;;;;;8.25;7.00;;;;;;;2.53;100.00;149304.25;13084667;22;20041;-84
2023/12/17 21:42:30;;;;;;;8.35;6.82;;;;;;;2.40;100.00;149272.19;13053571;22;20028;-83
2023/12/17 21:47:32;;;;;;;8.50;6.72;;;;;;;2.39;100.00;149269.63;13082870;22;20015;-81
2023/12/17 21:52:34;;;;;;;7.93;6.40;;;;;;;2.33;100.00;149252.94;13091959;22;20034;-82
2023/12/17 21:57:35;;;;;;;8.50;6.35;;;;;;;2.35;100.00;149259.38;13055997;22;20019;-82
2023/12/17 22:02:44;;;;;;;8.85;6.57;;;;;;;2.29;100.00;149243.94;13057132;22;20019;-82
2023/12/17 22:07:47;;;;;;;10.98;7.15;;;;;;;2.33;100.00;149254.22;13082263;22;20076;-84
2023/12/17 22:12:50;;;;;;;7.43;6.47;;;;;;;2.16;100.00;149211.88;13055662;22;20019;-84
2023/12/17 22:17:51;;;;;;;6.90;5.75;;;;;;;2.03;100.00;149179.81;13083712;22;20007;-82
2023/12/17 22:22:55;;;;;;;10.18;6.18;;;;;;;2.01;100.00;149174.69;13082022;22;20041;-83
2023/12/17 22:27:57;;;;;;;7.80;5.90;;;;;;;2.19;100.00;149218.31;13081926;22;20027;-81
2023/12/17 22:32:58;;;;;;;7.05;4.90;;;;;;;2.49;100.00;149295.28;13082487;22;20019;-82
2023/12/17 22:38:00;;;;;;;6.90;4.95;;;;;;;2.55;100.00;149309.38;13079657;22;20071;-83
2023/12/17 22:43:02;;;;;;;4.68;3.85;;;;;;;2.99;100.00;149419.72;13050388;22;20022;-83
2023/12/17 22:48:04;;;;;;;4.00;3.05;;;;;;;3.16;100.00;149463.38;13077569;22;20026;-83
2023/12/17 22:53:06;;;;;;;4.15;3.17;;;;;;;2.99;100.00;149421.00;13080281;22;20015;-81
2023/12/17 22:58:08;;;;;;;4.18;3.17;;;;;;;2.89;100.00;149395.34;13082712;22;20019;-82
2023/12/17 23:03:09;;;;;;;4.68;3.38;;;;;;;2.77;100.00;149364.53;13054906;22;20019;-82
2023/12/17 23:08:12;;;;;;;2.80;2.30;;;;;;;2.66;100.00;149337.63;13054687;22;20097;-83